createdAt,value
2019-06-27T00:00:00.052Z,100680.60
2019-06-27T00:00:37.302Z,100686.31
2019-06-27T00:01:13.950Z,100679.33
2019-06-27T00:01:50.305Z,100681.30
2019-06-27T00:02:27.813Z,100684.98
2019-06-27T00:03:05.340Z,100682.08
2019-06-27T00:03:41.518Z,100683.03
2019-06-27T00:04:18.140Z,100683.18
2019-06-27T00:04:54.746Z,100685.00
2019-06-27T00:05:30.805Z,100681.97
2019-06-27T00:06:07.771Z,100682.61
2019-06-27T00:06:44.551Z,100684.28
2019-06-27T00:07:21.031Z,100690.72
2019-06-27T00:07:58.073Z,100688.73
2019-06-27T00:08:35.195Z,100685.88
2019-06-27T00:09:12.503Z,100691.21
2019-06-27T00:09:49.510Z,100690.48
2019-06-27T00:10:26.225Z,100686.51
2019-06-27T00:11:02.294Z,100686.51
2019-06-27T00:11:38.969Z,100688.64
2019-06-27T00:12:15.586Z,100692.16
2019-06-27T00:12:51.729Z,100687.34
2019-06-27T00:13:28.357Z,100689.82
2019-06-27T00:14:05.125Z,100685.75
2019-06-27T00:14:41.220Z,100689.73
2019-06-27T00:15:17.938Z,100689.10
2019-06-27T00:15:54.597Z,100688.23
2019-06-27T00:16:30.641Z,100692.54
2019-06-27T00:17:07.731Z,100690.14
2019-06-27T00:17:44.394Z,100692.91
2019-06-27T00:18:20.464Z,100692.28
2019-06-27T00:18:57.079Z,100687.95
2019-06-27T00:19:33.725Z,100693.03
2019-06-27T00:20:10.111Z,100689.79
2019-06-27T00:20:46.777Z,100693.91
2019-06-27T00:21:24.225Z,100697.16
2019-06-27T00:22:00.750Z,100683.64
2019-06-27T00:22:41.138Z,100697.58
2019-06-27T00:23:17.095Z,100696.91
2019-06-27T00:23:53.236Z,100691.09
2019-06-27T00:24:29.866Z,100695.00
2019-06-27T00:25:06.800Z,100692.67
2019-06-27T00:25:43.424Z,100696.94
2019-06-27T00:26:20.419Z,100698.26
2019-06-27T00:26:57.791Z,100697.91
2019-06-27T00:27:34.363Z,100694.63
2019-06-27T00:28:11.053Z,100699.94
2019-06-27T00:28:47.660Z,100698.95
2019-06-27T00:29:23.687Z,100698.47
2019-06-27T00:30:00.562Z,100705.35
2019-06-27T00:30:37.487Z,100698.12
2019-06-27T00:31:13.536Z,100700.98
2019-06-27T00:31:50.165Z,100703.77
2019-06-27T00:32:27.132Z,100695.58
2019-06-27T00:33:03.190Z,100698.47
2019-06-27T00:33:39.831Z,100697.53
2019-06-27T00:34:16.587Z,100709.09
2019-06-27T00:34:52.614Z,100708.08
2019-06-27T00:35:29.220Z,100705.14
2019-06-27T00:36:06.356Z,100706.47
2019-06-27T00:36:42.705Z,100705.98
2019-06-27T00:37:19.306Z,100715.41
2019-06-27T00:37:56.270Z,100711.53
2019-06-27T00:38:33.668Z,100706.65
2019-06-27T00:39:11.601Z,100716.25
2019-06-27T00:39:48.513Z,100711.92
2019-06-27T00:40:24.544Z,100712.02
2019-06-27T00:41:01.189Z,100713.14
2019-06-27T00:41:37.811Z,100714.11
2019-06-27T00:42:14.180Z,100714.95
2019-06-27T00:42:50.792Z,100709.61
2019-06-27T00:43:27.393Z,100713.03
2019-06-27T00:44:03.515Z,100717.85
2019-06-27T00:44:40.358Z,100716.42
2019-06-27T00:45:17.075Z,100711.84
2019-06-27T00:45:53.103Z,100712.90
2019-06-27T00:46:29.758Z,100715.02
2019-06-27T00:47:06.499Z,100714.44
2019-06-27T00:47:42.572Z,100714.22
2019-06-27T00:48:19.200Z,100719.07
2019-06-27T00:48:55.820Z,100708.84
2019-06-27T00:49:32.148Z,100712.50
2019-06-27T00:50:09.290Z,100721.05
2019-06-27T00:50:46.369Z,100715.33
2019-06-27T00:51:22.440Z,100712.56
2019-06-27T00:51:59.325Z,100716.05
2019-06-27T00:52:36.124Z,100720.52
2019-06-27T00:53:12.216Z,100713.05
2019-06-27T00:53:48.819Z,100720.24
2019-06-27T00:54:25.426Z,100721.96
2019-06-27T00:55:01.444Z,100710.82
2019-06-27T00:55:38.133Z,100710.52
2019-06-27T00:56:14.898Z,100713.61
2019-06-27T00:56:51.172Z,100717.52
2019-06-27T00:57:28.036Z,100707.88
2019-06-27T00:58:05.110Z,100721.52
2019-06-27T00:58:41.150Z,100709.14
2019-06-27T00:59:17.753Z,100714.11
2019-06-27T00:59:54.472Z,100718.25
2019-06-27T01:00:30.842Z,100719.50
2019-06-27T01:01:07.631Z,100717.34
2019-06-27T01:01:44.259Z,100720.12
2019-06-27T01:02:20.265Z,100719.45
2019-06-27T01:02:57.128Z,100716.80
2019-06-27T01:03:33.815Z,100724.05
2019-06-27T01:04:12.822Z,100724.31
2019-06-27T01:04:49.742Z,100724.10
2019-06-27T01:05:26.805Z,100725.86
2019-06-27T01:06:03.297Z,100719.72
2019-06-27T01:06:40.465Z,100725.11
2019-06-27T01:07:17.122Z,100722.59
2019-06-27T01:07:53.159Z,100724.05
2019-06-27T01:08:29.779Z,100729.08
2019-06-27T01:09:07.794Z,100725.25
2019-06-27T01:09:43.910Z,100723.12
2019-06-27T01:10:20.917Z,100722.73
2019-06-27T01:10:57.560Z,100723.97
2019-06-27T01:11:34.193Z,100719.45
2019-06-27T01:12:10.914Z,100729.49
2019-06-27T01:12:47.540Z,100724.33
2019-06-27T01:13:23.584Z,100726.30
2019-06-27T01:14:00.232Z,100731.61
2019-06-27T01:14:36.903Z,100723.30
2019-06-27T01:15:12.953Z,100729.00
2019-06-27T01:15:49.564Z,100726.49
2019-06-27T01:16:26.203Z,100725.73
2019-06-27T01:17:02.597Z,100726.84
2019-06-27T01:17:39.287Z,100732.23
2019-06-27T01:18:15.912Z,100723.04
2019-06-27T01:18:51.986Z,100726.94
2019-06-27T01:19:28.599Z,100727.72
2019-06-27T01:20:06.179Z,100726.53
2019-06-27T01:20:42.248Z,100726.17
2019-06-27T01:21:19.268Z,100725.77
2019-06-27T01:21:55.849Z,100728.83
2019-06-27T01:22:32.692Z,100729.18
2019-06-27T01:23:09.344Z,100727.99
2019-06-27T01:23:45.982Z,100729.80
2019-06-27T01:24:22.356Z,100726.75
2019-06-27T01:24:59.300Z,100727.23
2019-06-27T01:25:36.011Z,100724.37
2019-06-27T01:26:12.129Z,100731.48
2019-06-27T01:26:49.085Z,100730.77
2019-06-27T01:27:30.062Z,100728.34
2019-06-27T01:28:03.604Z,100733.56
2019-06-27T01:28:40.564Z,100731.88
2019-06-27T01:29:17.610Z,100729.80
2019-06-27T01:29:53.635Z,100732.40
2019-06-27T01:30:30.241Z,100730.86
2019-06-27T01:31:07.284Z,100732.89
2019-06-27T01:31:43.508Z,100730.28
2019-06-27T01:32:20.109Z,100729.27
2019-06-27T01:32:56.811Z,100735.72
2019-06-27T01:33:33.228Z,100736.07
2019-06-27T01:34:09.903Z,100734.91
2019-06-27T01:34:46.520Z,100732.63
2019-06-27T01:35:23.084Z,100732.63
2019-06-27T01:35:59.696Z,100736.90
2019-06-27T01:36:36.375Z,100732.28
2019-06-27T01:37:12.419Z,100733.90
2019-06-27T01:37:49.305Z,100738.22
2019-06-27T01:38:25.920Z,100734.25
2019-06-27T01:39:01.938Z,100733.90
2019-06-27T01:39:38.688Z,100736.37
2019-06-27T01:40:18.277Z,100735.28
2019-06-27T01:40:54.295Z,100738.14
2019-06-27T01:41:30.930Z,100738.63
2019-06-27T01:42:08.012Z,100732.70
2019-06-27T01:42:44.019Z,100734.38
2019-06-27T01:43:21.005Z,100743.92
2019-06-27T01:43:57.645Z,100736.59
2019-06-27T01:44:42.122Z,100739.89
2019-06-27T01:45:26.402Z,100739.39
2019-06-27T01:46:03.034Z,100739.66
2019-06-27T01:46:39.174Z,100742.52
2019-06-27T01:47:15.795Z,100740.98
2019-06-27T01:47:52.398Z,100737.16
2019-06-27T01:48:28.424Z,100738.77
2019-06-27T01:49:05.543Z,100741.69
2019-06-27T01:49:42.171Z,100744.55
2019-06-27T01:50:18.186Z,100737.97
2019-06-27T01:50:55.111Z,100741.42
2019-06-27T01:51:31.935Z,100749.37
2019-06-27T01:52:07.971Z,100743.62
2019-06-27T01:52:44.884Z,100749.89
2019-06-27T01:53:21.949Z,100744.11
2019-06-27T01:53:57.996Z,100746.85
2019-06-27T01:54:34.932Z,100748.05
2019-06-27T01:55:11.979Z,100743.62
2019-06-27T01:55:47.982Z,100739.46
2019-06-27T01:56:24.628Z,100745.93
2019-06-27T01:57:01.485Z,100749.91
2019-06-27T01:57:46.505Z,100748.28
2019-06-27T01:58:15.801Z,100751.48
2019-06-27T01:58:52.437Z,100751.84
2019-06-27T01:59:28.831Z,100748.36
2019-06-27T02:00:06.833Z,100743.77
2019-06-27T02:00:43.868Z,100748.48
2019-06-27T02:01:19.862Z,100752.09
2019-06-27T02:01:56.685Z,100748.77
2019-06-27T02:02:33.702Z,100747.00
2019-06-27T02:03:09.787Z,100753.55
2019-06-27T02:03:47.120Z,100754.33
2019-06-27T02:04:23.711Z,100747.48
2019-06-27T02:05:00.269Z,100748.33
2019-06-27T02:05:36.950Z,100751.75
2019-06-27T02:06:13.685Z,100747.06
2019-06-27T02:06:50.147Z,100747.06
2019-06-27T02:07:26.755Z,100750.88
2019-06-27T02:08:03.718Z,100750.80
2019-06-27T02:08:40.471Z,100753.81
2019-06-27T02:09:17.179Z,100752.00
2019-06-27T02:09:54.154Z,100749.13
2019-06-27T02:10:30.175Z,100751.52
2019-06-27T02:11:06.900Z,100755.61
2019-06-27T02:11:43.524Z,100749.84
2019-06-27T02:12:19.678Z,100753.03
2019-06-27T02:12:56.311Z,100752.19
2019-06-27T02:13:35.341Z,100753.03
2019-06-27T02:14:11.862Z,100753.16
2019-06-27T02:14:48.859Z,100751.09
2019-06-27T02:15:26.196Z,100748.29
2019-06-27T02:16:02.296Z,100750.32
2019-06-27T02:16:39.014Z,100746.48
2019-06-27T02:17:15.687Z,100746.23
2019-06-27T02:17:52.060Z,100750.20
2019-06-27T02:18:28.678Z,100750.52
2019-06-27T02:19:05.510Z,100746.36
2019-06-27T02:19:41.608Z,100748.64
2019-06-27T02:20:19.389Z,100748.64
2019-06-27T02:20:55.999Z,100741.90
2019-06-27T02:21:32.072Z,100754.42
2019-06-27T02:22:08.887Z,100753.52
2019-06-27T02:22:45.582Z,100752.92
2019-06-27T02:23:21.618Z,100756.71
2019-06-27T02:23:58.222Z,100751.22
2019-06-27T02:24:35.195Z,100753.39
2019-06-27T02:25:11.773Z,100747.34
2019-06-27T02:25:48.356Z,100751.84
2019-06-27T02:26:25.826Z,100748.48
2019-06-27T02:27:01.968Z,100753.22
2019-06-27T02:27:39.240Z,100748.77
2019-06-27T02:28:16.220Z,100749.43
2019-06-27T02:28:52.252Z,100752.94
2019-06-27T02:29:28.847Z,100747.80
2019-06-27T02:30:06.078Z,100757.27
2019-06-27T02:30:43.489Z,100753.09
2019-06-27T02:31:20.260Z,100751.49
2019-06-27T02:31:56.946Z,100752.58
2019-06-27T02:32:33.300Z,100749.55
2019-06-27T02:33:10.040Z,100752.69
2019-06-27T02:33:46.649Z,100754.62
2019-06-27T02:34:22.955Z,100753.42
2019-06-27T02:34:59.618Z,100755.03
2019-06-27T02:35:36.431Z,100755.52
2019-06-27T02:36:12.466Z,100754.67
2019-06-27T02:36:49.101Z,100759.84
2019-06-27T02:37:25.718Z,100757.80
2019-06-27T02:38:02.246Z,100760.22
2019-06-27T02:38:38.975Z,100755.16
2019-06-27T02:39:15.947Z,100754.56
2019-06-27T02:39:51.949Z,100757.80
2019-06-27T02:40:28.564Z,100758.87
2019-06-27T02:41:05.454Z,100760.67
2019-06-27T02:41:41.860Z,100761.59
2019-06-27T02:42:18.459Z,100758.94
2019-06-27T02:42:55.212Z,100758.94
2019-06-27T02:43:31.274Z,100766.22
2019-06-27T02:44:07.984Z,100757.62
2019-06-27T02:44:44.597Z,100763.27
2019-06-27T02:45:20.935Z,100755.33
2019-06-27T02:45:57.544Z,100763.52
2019-06-27T02:46:35.518Z,100758.51
2019-06-27T02:47:11.572Z,100756.47
2019-06-27T02:47:48.213Z,100761.89
2019-06-27T02:48:24.844Z,100758.41
2019-06-27T02:49:00.862Z,100763.21
2019-06-27T02:49:37.645Z,100761.89
2019-06-27T02:50:14.312Z,100766.70
2019-06-27T02:50:50.354Z,100762.25
2019-06-27T02:51:26.966Z,100763.62
2019-06-27T02:52:03.797Z,100765.47
2019-06-27T02:52:40.027Z,100766.99
2019-06-27T02:53:17.050Z,100776.73
2019-06-27T02:53:53.662Z,100766.45
2019-06-27T02:54:30.112Z,100769.45
2019-06-27T02:55:06.967Z,100764.64
2019-06-27T02:55:43.583Z,100766.45
2019-06-27T02:56:19.605Z,100765.00
2019-06-27T02:56:56.222Z,100770.04
2019-06-27T02:57:32.840Z,100768.11
2019-06-27T02:58:28.873Z,100767.95
2019-06-27T02:58:47.464Z,100763.20
2019-06-27T02:59:24.121Z,100766.63
2019-06-27T03:00:00.452Z,100766.34
2019-06-27T03:00:37.414Z,100768.91
2019-06-27T03:01:14.067Z,100766.91
2019-06-27T03:01:50.074Z,100765.80
2019-06-27T03:02:26.775Z,100770.04
2019-06-27T03:03:03.578Z,100772.09
2019-06-27T03:03:39.750Z,100767.28
2019-06-27T03:04:16.353Z,100772.02
2019-06-27T03:04:53.048Z,100778.62
2019-06-27T03:05:29.079Z,100778.73
2019-06-27T03:06:05.940Z,100775.61
2019-06-27T03:06:43.218Z,100768.61
2019-06-27T03:07:19.359Z,100773.45
2019-06-27T03:07:55.995Z,100774.38
2019-06-27T03:08:32.762Z,100774.66
2019-06-27T03:09:08.913Z,100769.98
2019-06-27T03:09:45.647Z,100765.88
2019-06-27T03:10:23.785Z,100771.05
2019-06-27T03:10:59.826Z,100770.42
2019-06-27T03:11:36.806Z,100769.87
2019-06-27T03:12:13.464Z,100763.14
2019-06-27T03:12:49.830Z,100765.88
2019-06-27T03:13:26.474Z,100762.25
2019-06-27T03:14:03.358Z,100767.23
2019-06-27T03:14:39.988Z,100765.22
2019-06-27T03:15:16.877Z,100768.06
2019-06-27T03:15:53.495Z,100770.58
2019-06-27T03:16:29.616Z,100769.39
2019-06-27T03:17:06.476Z,100763.62
2019-06-27T03:17:43.192Z,100772.63
2019-06-27T03:18:19.305Z,100765.78
2019-06-27T03:18:55.918Z,100772.16
2019-06-27T03:19:33.525Z,100768.59
2019-06-27T03:20:10.844Z,100769.23
2019-06-27T03:20:48.211Z,100776.19
2019-06-27T03:21:25.161Z,100771.16
2019-06-27T03:22:05.371Z,100769.23
2019-06-27T03:22:40.156Z,100772.11
2019-06-27T03:23:16.814Z,100767.34
2019-06-27T03:23:52.870Z,100760.66
2019-06-27T03:24:29.581Z,100769.75
2019-06-27T03:25:06.871Z,100765.66
2019-06-27T03:25:42.931Z,100768.22
2019-06-27T03:26:19.517Z,100768.10
2019-06-27T03:26:56.124Z,100763.53
2019-06-27T03:27:32.324Z,100757.33
2019-06-27T03:28:08.941Z,100761.98
2019-06-27T03:28:52.746Z,100767.11
2019-06-27T03:29:23.935Z,100765.78
2019-06-27T03:30:00.552Z,100763.53
2019-06-27T03:30:37.261Z,100764.73
2019-06-27T03:31:13.344Z,100760.66
2019-06-27T03:31:49.912Z,100768.91
2019-06-27T03:32:26.508Z,100769.75
2019-06-27T03:33:02.638Z,100771.03
2019-06-27T03:33:39.365Z,100773.44
2019-06-27T03:34:15.965Z,100771.43
2019-06-27T03:34:51.982Z,100771.58
2019-06-27T03:35:28.593Z,100775.75
2019-06-27T03:36:05.304Z,100773.38
2019-06-27T03:36:41.903Z,100773.39
2019-06-27T03:37:18.516Z,100773.66
2019-06-27T03:37:55.116Z,100769.78
2019-06-27T03:38:31.168Z,100769.63
2019-06-27T03:39:08.114Z,100768.70
2019-06-27T03:39:44.791Z,100772.27
2019-06-27T03:40:21.442Z,100767.41
2019-06-27T03:40:58.070Z,100773.87
2019-06-27T03:41:35.240Z,100774.70
2019-06-27T03:42:11.468Z,100771.94
2019-06-27T03:42:48.075Z,100775.34
2019-06-27T03:43:25.117Z,100767.89
2019-06-27T03:44:01.186Z,100770.89
2019-06-27T03:44:37.948Z,100775.19
2019-06-27T03:45:16.124Z,100777.23
2019-06-27T03:45:52.706Z,100779.87
2019-06-27T03:46:29.333Z,100777.34
2019-06-27T03:47:05.998Z,100778.31
2019-06-27T03:47:42.070Z,100769.09
2019-06-27T03:48:18.718Z,100767.89
2019-06-27T03:48:55.397Z,100773.03
2019-06-27T03:49:31.449Z,100774.14
2019-06-27T03:50:08.537Z,100768.38
2019-06-27T03:50:44.921Z,100776.27
2019-06-27T03:51:20.939Z,100776.27
2019-06-27T03:51:57.546Z,100777.27
2019-06-27T03:52:34.307Z,100771.86
2019-06-27T03:53:10.340Z,100775.01
2019-06-27T03:53:47.295Z,100770.69
2019-06-27T03:54:23.917Z,100777.89
2019-06-27T03:54:59.956Z,100780.66
2019-06-27T03:55:36.573Z,100776.09
2019-06-27T03:56:13.248Z,100776.98
2019-06-27T03:56:49.270Z,100782.02
2019-06-27T03:57:25.875Z,100773.27
2019-06-27T03:58:02.483Z,100784.16
2019-06-27T03:58:38.921Z,100783.05
2019-06-27T03:59:15.580Z,100780.05
2019-06-27T03:59:52.172Z,100781.61
2019-06-27T04:00:32.795Z,100780.80
2019-06-27T04:01:09.502Z,100787.79
2019-06-27T04:01:46.175Z,100784.75
2019-06-27T04:02:22.616Z,100787.79
2019-06-27T04:02:59.218Z,100779.59
2019-06-27T04:03:36.102Z,100779.93
2019-06-27T04:04:15.451Z,100783.89
2019-06-27T04:04:52.062Z,100784.40
2019-06-27T04:05:28.676Z,100786.20
2019-06-27T04:06:04.750Z,100783.56
2019-06-27T04:06:41.391Z,100786.47
2019-06-27T04:07:18.006Z,100785.98
2019-06-27T04:07:54.032Z,100787.30
2019-06-27T04:08:30.710Z,100784.90
2019-06-27T04:09:07.782Z,100784.53
2019-06-27T04:09:44.165Z,100783.34
2019-06-27T04:10:20.794Z,100787.66
2019-06-27T04:10:57.913Z,100790.51
2019-06-27T04:11:34.267Z,100781.91
2019-06-27T04:12:11.059Z,100786.20
2019-06-27T04:12:47.761Z,100782.78
2019-06-27T04:13:24.351Z,100781.61
2019-06-27T04:14:01.234Z,100788.48
2019-06-27T04:14:37.899Z,100785.00
2019-06-27T04:15:14.260Z,100786.80
2019-06-27T04:15:51.188Z,100787.42
2019-06-27T04:16:27.811Z,100783.95
2019-06-27T04:17:03.962Z,100788.59
2019-06-27T04:17:40.902Z,100788.02
2019-06-27T04:18:17.882Z,100787.30
2019-06-27T04:18:53.894Z,100787.30
2019-06-27T04:19:30.896Z,100782.86
2019-06-27T04:20:07.783Z,100787.30
2019-06-27T04:20:44.079Z,100789.67
2019-06-27T04:21:20.670Z,100790.66
2019-06-27T04:21:57.264Z,100790.78
2019-06-27T04:22:33.330Z,100792.22
2019-06-27T04:23:09.988Z,100789.21
2019-06-27T04:23:46.618Z,100784.53
2019-06-27T04:24:22.695Z,100788.50
2019-06-27T04:24:59.658Z,100788.50
2019-06-27T04:25:36.309Z,100793.40
2019-06-27T04:26:12.828Z,100788.71
2019-06-27T04:26:49.523Z,100792.13
2019-06-27T04:27:26.180Z,100789.25
2019-06-27T04:28:02.511Z,100790.09
2019-06-27T04:28:39.285Z,100792.59
2019-06-27T04:29:32.826Z,100798.45
2019-06-27T04:29:53.675Z,100792.47
2019-06-27T04:30:30.465Z,100796.27
2019-06-27T04:31:07.153Z,100805.44
2019-06-27T04:31:43.220Z,100800.75
2019-06-27T04:32:20.075Z,100807.67
2019-06-27T04:32:56.758Z,100803.48
2019-06-27T04:33:32.768Z,100805.51
2019-06-27T04:34:09.849Z,100798.81
2019-06-27T04:34:46.866Z,100800.59
2019-06-27T04:35:22.866Z,100803.37
2019-06-27T04:35:59.504Z,100805.51
2019-06-27T04:36:36.479Z,100800.98
2019-06-27T04:37:13.102Z,100805.44
2019-06-27T04:37:49.730Z,100806.03
2019-06-27T04:38:26.328Z,100800.50
2019-06-27T04:39:02.474Z,100811.91
2019-06-27T04:39:39.679Z,100799.07
2019-06-27T04:40:16.787Z,100806.13
2019-06-27T04:40:52.819Z,100808.65
2019-06-27T04:41:29.498Z,100803.64
2019-06-27T04:42:06.278Z,100807.12
2019-06-27T04:42:42.765Z,100806.37
2019-06-27T04:43:19.355Z,100805.32
2019-06-27T04:43:56.397Z,100805.32
2019-06-27T04:44:32.871Z,100810.81
2019-06-27T04:45:09.754Z,100809.73
2019-06-27T04:45:46.452Z,100812.61
2019-06-27T04:46:22.521Z,100811.20
2019-06-27T04:46:59.137Z,100806.64
2019-06-27T04:47:36.001Z,100804.61
2019-06-27T04:48:12.066Z,100810.51
2019-06-27T04:48:48.828Z,100817.80
2019-06-27T04:49:25.427Z,100811.31
2019-06-27T04:50:01.530Z,100816.20
2019-06-27T04:50:38.645Z,100816.34
2019-06-27T04:51:15.605Z,100818.98
2019-06-27T04:51:51.713Z,100813.58
2019-06-27T04:52:28.495Z,100813.11
2019-06-27T04:53:05.591Z,100821.28
2019-06-27T04:53:41.998Z,100816.91
2019-06-27T04:54:18.895Z,100815.63
2019-06-27T04:54:56.081Z,100819.95
2019-06-27T04:55:32.242Z,100819.23
2019-06-27T04:56:08.879Z,100819.48
2019-06-27T04:56:45.747Z,100821.23
2019-06-27T04:57:22.117Z,100814.55
2019-06-27T04:57:58.803Z,100812.73
2019-06-27T04:58:35.648Z,100817.99
2019-06-27T04:59:11.799Z,100820.60
2019-06-27T04:59:54.028Z,100814.48
2019-06-27T05:00:31.004Z,100821.34
2019-06-27T05:01:07.173Z,100816.44
2019-06-27T05:01:43.809Z,100819.71
2019-06-27T05:02:20.497Z,100820.78
2019-06-27T05:02:57.011Z,100822.45
2019-06-27T05:03:33.822Z,100823.03
2019-06-27T05:04:10.477Z,100821.35
2019-06-27T05:04:46.538Z,100819.94
2019-06-27T05:05:24.273Z,100824.16
2019-06-27T05:06:00.916Z,100824.25
2019-06-27T05:06:37.167Z,100830.92
2019-06-27T05:07:16.685Z,100824.83
2019-06-27T05:07:53.395Z,100829.03
2019-06-27T05:08:29.460Z,100819.81
2019-06-27T05:09:06.322Z,100824.54
2019-06-27T05:09:43.075Z,100818.80
2019-06-27T05:10:19.141Z,100816.91
2019-06-27T05:10:55.752Z,100819.05
2019-06-27T05:11:32.359Z,100826.34
2019-06-27T05:12:08.506Z,100824.91
2019-06-27T05:12:45.215Z,100821.69
2019-06-27T05:13:21.873Z,100819.04
2019-06-27T05:13:57.944Z,100825.53
2019-06-27T05:14:34.666Z,100825.50
2019-06-27T05:15:11.395Z,100830.06
2019-06-27T05:15:47.399Z,100827.57
2019-06-27T05:16:24.001Z,100822.05
2019-06-27T05:17:01.431Z,100823.97
2019-06-27T05:17:37.684Z,100829.13
2019-06-27T05:18:14.348Z,100829.76
2019-06-27T05:18:51.342Z,100831.91
2019-06-27T05:19:28.135Z,100831.80
2019-06-27T05:20:04.949Z,100829.27
2019-06-27T05:20:41.764Z,100829.03
2019-06-27T05:21:17.798Z,100834.05
2019-06-27T05:21:55.172Z,100835.61
2019-06-27T05:22:31.791Z,100836.45
2019-06-27T05:23:07.915Z,100834.20
2019-06-27T05:23:45.389Z,100834.53
2019-06-27T05:24:22.055Z,100834.20
2019-06-27T05:24:58.070Z,100837.20
2019-06-27T05:25:34.788Z,100834.05
2019-06-27T05:26:11.492Z,100837.42
2019-06-27T05:26:47.507Z,100831.29
2019-06-27T05:27:24.325Z,100838.02
2019-06-27T05:28:00.928Z,100832.73
2019-06-27T05:28:37.099Z,100838.14
2019-06-27T05:29:14.064Z,100837.53
2019-06-27T05:29:51.073Z,100832.61
2019-06-27T05:30:27.118Z,100834.41
2019-06-27T05:31:03.898Z,100827.45
2019-06-27T05:31:40.694Z,100831.44
2019-06-27T05:32:16.781Z,100832.38
2019-06-27T05:32:53.475Z,100833.19
2019-06-27T05:33:30.071Z,100835.95
2019-06-27T05:34:06.206Z,100836.07
2019-06-27T05:34:42.888Z,100834.41
2019-06-27T05:35:20.310Z,100836.42
2019-06-27T05:35:56.384Z,100830.69
2019-06-27T05:36:33.125Z,100836.45
2019-06-27T05:37:09.809Z,100835.61
2019-06-27T05:37:46.039Z,100836.36
2019-06-27T05:38:23.004Z,100845.34
2019-06-27T05:38:59.952Z,100840.41
2019-06-27T05:39:36.167Z,100843.66
2019-06-27T05:40:13.303Z,100841.41
2019-06-27T05:40:49.948Z,100842.98
2019-06-27T05:41:25.954Z,100846.34
2019-06-27T05:42:02.571Z,100848.48
2019-06-27T05:42:39.263Z,100848.98
2019-06-27T05:43:15.410Z,100850.17
2019-06-27T05:43:51.989Z,100849.84
2019-06-27T05:44:28.931Z,100853.31
2019-06-27T05:45:05.461Z,100858.12
2019-06-27T05:45:42.142Z,100852.58
2019-06-27T05:46:19.131Z,100853.54
2019-06-27T05:46:55.177Z,100857.98
2019-06-27T05:47:32.444Z,100846.82
2019-06-27T05:48:09.151Z,100849.70
2019-06-27T05:48:45.449Z,100850.08
2019-06-27T05:49:22.027Z,100845.05
2019-06-27T05:49:58.624Z,100854.00
2019-06-27T05:50:35.265Z,100853.27
2019-06-27T05:51:12.016Z,100862.73
2019-06-27T05:51:48.955Z,100855.42
2019-06-27T05:52:25.009Z,100859.17
2019-06-27T05:53:01.976Z,100860.69
2019-06-27T05:53:38.967Z,100857.83
2019-06-27T05:54:14.984Z,100858.64
2019-06-27T05:54:51.982Z,100858.53
2019-06-27T05:55:28.598Z,100853.59
2019-06-27T05:56:05.015Z,100848.84
2019-06-27T05:56:41.847Z,100851.73
2019-06-27T05:57:18.966Z,100852.66
2019-06-27T05:57:55.389Z,100859.99
2019-06-27T05:58:32.313Z,100858.14
2019-06-27T05:59:09.308Z,100851.53
2019-06-27T05:59:45.338Z,100851.20
2019-06-27T06:00:29.006Z,100854.59
2019-06-27T06:01:00.787Z,100851.20
2019-06-27T06:01:36.894Z,100853.48
2019-06-27T06:02:13.655Z,100852.02
2019-06-27T06:02:50.277Z,100854.59
2019-06-27T06:03:26.347Z,100856.00
2019-06-27T06:04:03.029Z,100856.81
2019-06-27T06:04:39.938Z,100854.17
2019-06-27T06:05:16.095Z,100850.84
2019-06-27T06:05:52.849Z,100848.66
2019-06-27T06:06:29.440Z,100853.55
2019-06-27T06:07:06.061Z,100851.30
2019-06-27T06:07:43.022Z,100850.21
2019-06-27T06:08:19.993Z,100855.50
2019-06-27T06:08:56.365Z,100852.86
2019-06-27T06:09:33.223Z,100853.67
2019-06-27T06:10:10.476Z,100856.31
2019-06-27T06:10:47.152Z,100860.03
2019-06-27T06:11:24.053Z,100862.08
2019-06-27T06:12:00.739Z,100855.20
2019-06-27T06:12:37.452Z,100853.31
2019-06-27T06:13:14.411Z,100855.32
2019-06-27T06:13:51.688Z,100857.52
2019-06-27T06:14:27.719Z,100849.76
2019-06-27T06:15:04.526Z,100856.73
2019-06-27T06:15:41.155Z,100853.84
2019-06-27T06:16:17.616Z,100858.62
2019-06-27T06:16:54.246Z,100853.97
2019-06-27T06:17:31.205Z,100859.22
2019-06-27T06:18:07.588Z,100857.69
2019-06-27T06:18:44.406Z,100851.92
2019-06-27T06:19:21.008Z,100852.14
2019-06-27T06:19:57.042Z,100850.55
2019-06-27T06:20:35.400Z,100858.05
2019-06-27T06:21:12.117Z,100853.84
2019-06-27T06:21:48.923Z,100862.94
2019-06-27T06:22:25.529Z,100857.66
2019-06-27T06:23:02.623Z,100857.17
2019-06-27T06:23:39.113Z,100861.81
2019-06-27T06:24:16.306Z,100862.94
2019-06-27T06:24:52.909Z,100865.70
2019-06-27T06:25:29.611Z,100865.26
2019-06-27T06:26:06.489Z,100865.70
2019-06-27T06:26:43.457Z,100868.17
2019-06-27T06:27:19.626Z,100864.25
2019-06-27T06:27:56.219Z,100867.34
2019-06-27T06:28:32.864Z,100872.34
2019-06-27T06:29:09.131Z,100863.87
2019-06-27T06:29:46.149Z,100866.80
2019-06-27T06:30:23.311Z,100874.03
2019-06-27T06:30:59.325Z,100871.75
2019-06-27T06:31:36.317Z,100868.70
2019-06-27T06:32:13.413Z,100868.35
2019-06-27T06:32:49.801Z,100875.62
2019-06-27T06:33:26.414Z,100869.31
2019-06-27T06:34:04.132Z,100869.36
2019-06-27T06:34:40.463Z,100869.56
2019-06-27T06:35:17.542Z,100873.11
2019-06-27T06:35:54.175Z,100868.66
2019-06-27T06:36:30.213Z,100872.50
2019-06-27T06:37:08.140Z,100874.56
2019-06-27T06:37:44.967Z,100876.47
2019-06-27T06:38:20.983Z,100882.73
2019-06-27T06:38:57.640Z,100874.78
2019-06-27T06:39:34.331Z,100873.94
2019-06-27T06:40:10.607Z,100875.86
2019-06-27T06:40:47.364Z,100876.81
2019-06-27T06:41:24.055Z,100882.46
2019-06-27T06:42:00.066Z,100875.02
2019-06-27T06:42:37.097Z,100883.95
2019-06-27T06:43:13.758Z,100880.56
2019-06-27T06:43:50.046Z,100873.41
2019-06-27T06:44:26.967Z,100881.16
2019-06-27T06:45:03.830Z,100878.05
2019-06-27T06:45:40.298Z,100876.17
2019-06-27T06:46:17.171Z,100881.04
2019-06-27T06:46:53.802Z,100881.78
2019-06-27T06:47:29.847Z,100884.97
2019-06-27T06:48:06.863Z,100878.27
2019-06-27T06:48:43.545Z,100884.54
2019-06-27T06:49:19.874Z,100885.68
2019-06-27T06:49:56.442Z,100886.65
2019-06-27T06:50:33.399Z,100882.19
2019-06-27T06:51:09.949Z,100885.37
2019-06-27T06:51:46.582Z,100890.48
2019-06-27T06:52:23.187Z,100885.55
2019-06-27T06:52:59.198Z,100888.73
2019-06-27T06:53:35.848Z,100887.78
2019-06-27T06:54:12.584Z,100894.16
2019-06-27T06:54:48.589Z,100890.48
2019-06-27T06:55:25.200Z,100893.06
2019-06-27T06:56:01.824Z,100893.20
2019-06-27T06:56:38.140Z,100892.53
2019-06-27T06:57:15.507Z,100895.66
2019-06-27T06:57:52.145Z,100896.38
2019-06-27T06:58:28.598Z,100893.02